sensor_id;sensor_type;location;lat;lon;timestamp;pressure;altitude;pressure_sealevel;temperature;humidity
27613;BME280;15036;48.094;-1.690;2023-07-31T00:01:52;101085.56;;;23.22;56.05
27613;BME280;15036;48.094;-1.690;2023-07-31T00:04:17;101083.88;;;23.11;56.33
27613;BME280;15036;48.094;-1.690;2023-07-31T00:06:43;101095.00;;;23.06;56.35
27613;BME280;15036;48.094;-1.690;2023-07-31T00:09:08;101092.91;;;23.48;55.18
27613;BME280;15036;48.094;-1.690;2023-07-31T00:11:34;101103.50;;;23.41;55.24
27613;BME280;15036;48.094;-1.690;2023-07-31T00:13:59;101094.03;;;23.57;55.24
27613;BME280;15036;48.094;-1.690;2023-07-31T00:16:24;101105.47;;;23.56;55.34
27613;BME280;15036;48.094;-1.690;2023-07-31T00:18:50;101089.84;;;23.45;55.38
27613;BME280;15036;48.094;-1.690;2023-07-31T00:21:15;101090.59;;;23.20;55.99
27613;BME280;15036;48.094;-1.690;2023-07-31T00:23:43;101080.53;;;23.09;56.51
27613;BME280;15036;48.094;-1.690;2023-07-31T00:26:08;101082.75;;;23.12;56.34
27613;BME280;15036;48.094;-1.690;2023-07-31T00:28:34;101085.56;;;23.22;56.45
27613;BME280;15036;48.094;-1.690;2023-07-31T00:30:59;101091.16;;;23.17;56.62
27613;BME280;15036;48.094;-1.690;2023-07-31T00:33:24;101088.88;;;23.14;56.63
27613;BME280;15036;48.094;-1.690;2023-07-31T00:35:50;101093.47;;;23.50;55.65
27613;BME280;15036;48.094;-1.690;2023-07-31T00:38:15;101078.06;;;23.27;56.27
27613;BME280;15036;48.094;-1.690;2023-07-31T00:40:40;101087.34;;;23.43;55.92
27613;BME280;15036;48.094;-1.690;2023-07-31T00:43:06;101073.97;;;23.45;55.54
27613;BME280;15036;48.094;-1.690;2023-07-31T00:45:32;101078.97;;;23.33;56.18
27613;BME280;15036;48.094;-1.690;2023-07-31T00:47:58;101082.81;;;23.27;56.22
27613;BME280;15036;48.094;-1.690;2023-07-31T00:50:24;101072.84;;;23.41;55.92
27613;BME280;15036;48.094;-1.690;2023-07-31T00:52:50;101065.78;;;23.18;56.79
27613;BME280;15036;48.094;-1.690;2023-07-31T00:55:16;101055.75;;;23.27;56.10
27613;BME280;15036;48.094;-1.690;2023-07-31T00:57:42;101076.16;;;23.38;56.17
27613;BME280;15036;48.094;-1.690;2023-07-31T01:00:08;101060.31;;;23.64;55.62
27613;BME280;15036;48.094;-1.690;2023-07-31T01:02:34;101052.53;;;23.71;55.38
27613;BME280;15036;48.094;-1.690;2023-07-31T01:05:01;101063.53;;;23.10;56.77
27613;BME280;15036;48.094;-1.690;2023-07-31T01:07:34;101051.72;;;22.78;57.32
27613;BME280;15036;48.094;-1.690;2023-07-31T01:10:08;101054.94;;;23.27;56.56
27613;BME280;15036;48.094;-1.690;2023-07-31T01:12:38;101064.41;;;23.26;56.54
27613;BME280;15036;48.094;-1.690;2023-07-31T01:15:08;101057.25;;;23.50;55.74
27613;BME280;15036;48.094;-1.690;2023-07-31T01:17:37;101044.16;;;23.66;55.16
27613;BME280;15036;48.094;-1.690;2023-07-31T01:20:27;101040.22;;;23.42;55.83
27613;BME280;15036;48.094;-1.690;2023-07-31T01:29:10;101040.53;;;23.45;55.75
27613;BME280;15036;48.094;-1.690;2023-07-31T01:31:41;101034.13;;;23.55;55.67
27613;BME280;15036;48.094;-1.690;2023-07-31T01:34:08;101029.38;;;23.75;55.08
27613;BME280;15036;48.094;-1.690;2023-07-31T01:36:35;101028.25;;;23.31;56.14
27613;BME280;15036;48.094;-1.690;2023-07-31T01:39:01;101030.47;;;23.69;55.37
27613;BME280;15036;48.094;-1.690;2023-07-31T01:41:29;101029.06;;;23.32;56.44
27613;BME280;15036;48.094;-1.690;2023-07-31T01:43:54;101023.25;;;23.78;54.85
27613;BME280;15036;48.094;-1.690;2023-07-31T01:46:20;101003.16;;;23.46;56.07
27613;BME280;15036;48.094;-1.690;2023-07-31T01:48:45;100998.13;;;23.63;55.33
27613;BME280;15036;48.094;-1.690;2023-07-31T01:51:10;100997.88;;;23.60;55.35
27613;BME280;15036;48.094;-1.690;2023-07-31T01:53:36;100994.19;;;23.19;56.24
27613;BME280;15036;48.094;-1.690;2023-07-31T01:56:01;100995.63;;;23.62;55.63
27613;BME280;15036;48.094;-1.690;2023-07-31T01:58:26;100998.09;;;23.13;56.67
27613;BME280;15036;48.094;-1.690;2023-07-31T02:00:52;101004.81;;;23.32;56.12
27613;BME280;15036;48.094;-1.690;2023-07-31T02:03:17;101002.81;;;23.07;56.88
27613;BME280;15036;48.094;-1.690;2023-07-31T02:05:46;100985.00;;;23.28;56.19
27613;BME280;15036;48.094;-1.690;2023-07-31T02:08:12;100987.00;;;23.53;55.85
27613;BME280;15036;48.094;-1.690;2023-07-31T02:10:37;100976.13;;;23.47;55.73
27613;BME280;15036;48.094;-1.690;2023-07-31T02:13:03;100973.63;;;23.70;55.37
27613;BME280;15036;48.094;-1.690;2023-07-31T02:15:29;100976.13;;;23.47;56.00
27613;BME280;15036;48.094;-1.690;2023-07-31T02:17:55;100970.28;;;23.33;56.36
27613;BME280;15036;48.094;-1.690;2023-07-31T02:20:20;100969.19;;;23.39;56.24
27613;BME280;15036;48.094;-1.690;2023-07-31T02:22:46;100958.31;;;23.53;56.01
27613;BME280;15036;48.094;-1.690;2023-07-31T02:25:11;100956.06;;;23.45;56.17
27613;BME280;15036;48.094;-1.690;2023-07-31T02:27:36;100954.13;;;23.45;56.10
27613;BME280;15036;48.094;-1.690;2023-07-31T02:30:02;100944.59;;;23.16;56.80
27613;BME280;15036;48.094;-1.690;2023-07-31T02:32:27;100941.81;;;23.61;56.04
27613;BME280;15036;48.094;-1.690;2023-07-31T02:34:52;100940.72;;;23.62;55.58
27613;BME280;15036;48.094;-1.690;2023-07-31T02:37:18;100945.44;;;23.26;56.94
27613;BME280;15036;48.094;-1.690;2023-07-31T02:39:43;100937.94;;;23.57;55.84
27613;BME280;15036;48.094;-1.690;2023-07-31T02:42:08;100950.50;;;23.35;56.39
27613;BME280;15036;48.094;-1.690;2023-07-31T02:44:34;100939.91;;;23.42;56.20
27613;BME280;15036;48.094;-1.690;2023-07-31T02:46:59;100936.53;;;23.50;56.35
27613;BME280;15036;48.094;-1.690;2023-07-31T02:49:24;100940.16;;;23.70;55.81
27613;BME280;15036;48.094;-1.690;2023-07-31T02:51:50;100941.59;;;23.43;56.09
27613;BME280;15036;48.094;-1.690;2023-07-31T02:54:15;100940.16;;;23.55;55.79
27613;BME280;15036;48.094;-1.690;2023-07-31T02:56:40;100936.28;;;23.56;55.92
27613;BME280;15036;48.094;-1.690;2023-07-31T02:59:06;100936.00;;;23.58;55.99
27613;BME280;15036;48.094;-1.690;2023-07-31T03:01:31;100925.66;;;23.53;56.08
27613;BME280;15036;48.094;-1.690;2023-07-31T03:03:56;100922.84;;;23.83;55.17
27613;BME280;15036;48.094;-1.690;2023-07-31T03:06:22;100920.03;;;23.83;55.35
27613;BME280;15036;48.094;-1.690;2023-07-31T03:08:47;100914.53;;;23.58;55.26
27613;BME280;15036;48.094;-1.690;2023-07-31T03:11:12;100910.31;;;22.90;57.49
27613;BME280;15036;48.094;-1.690;2023-07-31T03:13:38;100914.81;;;23.47;56.23
27613;BME280;15036;48.094;-1.690;2023-07-31T03:16:03;100897.84;;;23.43;55.95
27613;BME280;15036;48.094;-1.690;2023-07-31T03:18:29;100899.19;;;23.61;55.93
27613;BME280;15036;48.094;-1.690;2023-07-31T03:20:54;100904.75;;;23.66;55.44
27613;BME280;15036;48.094;-1.690;2023-07-31T03:23:19;100903.66;;;23.62;55.87
27613;BME280;15036;48.094;-1.690;2023-07-31T03:26:01;100905.03;;;23.69;55.41
27613;BME280;15036;48.094;-1.690;2023-07-31T03:28:28;100909.53;;;23.45;56.11
27613;BME280;15036;48.094;-1.690;2023-07-31T03:30:53;100912.81;;;23.77;55.36
27613;BME280;15036;48.094;-1.690;2023-07-31T03:33:19;100905.00;;;23.79;55.35
27613;BME280;15036;48.094;-1.690;2023-07-31T03:35:44;100909.72;;;23.84;55.23
27613;BME280;15036;48.094;-1.690;2023-07-31T03:38:10;100906.63;;;24.05;54.81
27613;BME280;15036;48.094;-1.690;2023-07-31T03:40:35;100894.94;;;23.98;54.91
27613;BME280;15036;48.094;-1.690;2023-07-31T03:43:01;100892.81;;;23.45;56.32
27613;BME280;15036;48.094;-1.690;2023-07-31T03:45:26;100903.38;;;23.68;55.88
27613;BME280;15036;48.094;-1.690;2023-07-31T03:47:51;100901.19;;;23.35;56.41
27613;BME280;15036;48.094;-1.690;2023-07-31T03:50:17;100892.81;;;23.40;56.15
27613;BME280;15036;48.094;-1.690;2023-07-31T03:52:42;100892.25;;;23.43;56.44
27613;BME280;15036;48.094;-1.690;2023-07-31T03:55:08;100893.28;;;23.82;55.68
27613;BME280;15036;48.094;-1.690;2023-07-31T03:57:33;100885.53;;;23.64;56.21
27613;BME280;15036;48.094;-1.690;2023-07-31T03:59:59;100879.16;;;24.33;54.39
27613;BME280;15036;48.094;-1.690;2023-07-31T04:02:24;100870.50;;;23.30;56.78
27613;BME280;15036;48.094;-1.690;2023-07-31T04:04:50;100872.75;;;23.43;56.94
27613;BME280;15036;48.094;-1.690;2023-07-31T04:07:15;100862.06;;;23.80;55.79
27613;BME280;15036;48.094;-1.690;2023-07-31T04:09:40;100858.00;;;23.33;56.91
27613;BME280;15036;48.094;-1.690;2023-07-31T04:12:06;100851.53;;;23.62;56.14
27613;BME280;15036;48.094;-1.690;2023-07-31T04:14:31;100850.69;;;23.62;56.56
27613;BME280;15036;48.094;-1.690;2023-07-31T04:16:57;100872.72;;;23.58;56.32
27613;BME280;15036;48.094;-1.690;2023-07-31T04:19:22;100871.56;;;23.74;55.91
27613;BME280;15036;48.094;-1.690;2023-07-31T04:21:47;100868.72;;;24.04;55.60
27613;BME280;15036;48.094;-1.690;2023-07-31T04:24:13;100868.97;;;23.93;55.52
27613;BME280;15036;48.094;-1.690;2023-07-31T04:26:38;100855.41;;;23.66;56.18
27613;BME280;15036;48.094;-1.690;2023-07-31T04:29:03;100878.59;;;23.37;57.53
27613;BME280;15036;48.094;-1.690;2023-07-31T04:31:29;100857.59;;;23.79;56.21
27613;BME280;15036;48.094;-1.690;2023-07-31T04:33:54;100854.28;;;23.72;56.35
27613;BME280;15036;48.094;-1.690;2023-07-31T04:36:19;100853.16;;;23.73;56.18
27613;BME280;15036;48.094;-1.690;2023-07-31T04:38:45;100860.88;;;24.01;55.49
27613;BME280;15036;48.094;-1.690;2023-07-31T04:41:10;100851.34;;;24.18;55.20
27613;BME280;15036;48.094;-1.690;2023-07-31T04:43:35;100854.19;;;23.97;55.79
27613;BME280;15036;48.094;-1.690;2023-07-31T04:46:04;100851.69;;;23.91;55.94
27613;BME280;15036;48.094;-1.690;2023-07-31T04:48:29;100854.63;;;23.41;57.40
27613;BME280;15036;48.094;-1.690;2023-07-31T04:50:54;100852.22;;;24.08;55.80
27613;BME280;15036;48.094;-1.690;2023-07-31T04:53:20;100852.44;;;24.22;55.42
27613;BME280;15036;48.094;-1.690;2023-07-31T04:55:45;100846.41;;;23.89;56.30
27613;BME280;15036;48.094;-1.690;2023-07-31T04:58:10;100842.56;;;23.65;56.72
27613;BME280;15036;48.094;-1.690;2023-07-31T05:00:36;100852.56;;;23.86;56.37
27613;BME280;15036;48.094;-1.690;2023-07-31T05:03:01;100847.56;;;23.78;56.67
27613;BME280;15036;48.094;-1.690;2023-07-31T05:05:27;100839.22;;;23.78;56.62
27613;BME280;15036;48.094;-1.690;2023-07-31T05:07:52;100836.34;;;24.08;56.13
27613;BME280;15036;48.094;-1.690;2023-07-31T05:10:17;100815.69;;;23.99;55.99
27613;BME280;15036;48.094;-1.690;2023-07-31T05:12:43;100817.41;;;23.90;56.43
27613;BME280;15036;48.094;-1.690;2023-07-31T05:15:08;100816.69;;;23.65;57.17
27613;BME280;15036;48.094;-1.690;2023-07-31T05:17:34;100821.06;;;23.86;56.46
27613;BME280;15036;48.094;-1.690;2023-07-31T05:19:59;100808.41;;;24.14;55.87
27613;BME280;15036;48.094;-1.690;2023-07-31T05:22:24;100824.34;;;23.98;56.79
27613;BME280;15036;48.094;-1.690;2023-07-31T05:24:50;100815.16;;;24.02;55.89
27613;BME280;15036;48.094;-1.690;2023-07-31T05:27:15;100821.81;;;24.01;56.53
27613;BME280;15036;48.094;-1.690;2023-07-31T05:29:43;100814.59;;;23.95;56.21
27613;BME280;15036;48.094;-1.690;2023-07-31T05:32:09;100815.19;;;23.87;56.71
27613;BME280;15036;48.094;-1.690;2023-07-31T05:34:34;100819.00;;;24.12;56.53
27613;BME280;15036;48.094;-1.690;2023-07-31T05:37:00;100820.00;;;24.36;55.66
27613;BME280;15036;48.094;-1.690;2023-07-31T05:39:25;100822.91;;;24.16;55.88
27613;BME280;15036;48.094;-1.690;2023-07-31T05:41:50;100824.91;;;24.54;54.86
27613;BME280;15036;48.094;-1.690;2023-07-31T05:44:16;100828.06;;;24.37;55.80
27613;BME280;15036;48.094;-1.690;2023-07-31T05:46:41;100830.78;;;23.93;56.44
27613;BME280;15036;48.094;-1.690;2023-07-31T05:49:07;100824.69;;;23.86;56.97
27613;BME280;15036;48.094;-1.690;2023-07-31T05:51:32;100816.16;;;24.22;56.05
27613;BME280;15036;48.094;-1.690;2023-07-31T05:53:57;100818.53;;;23.89;56.96
27613;BME280;15036;48.094;-1.690;2023-07-31T05:56:23;100820.84;;;23.57;57.73
27613;BME280;15036;48.094;-1.690;2023-07-31T05:58:48;100811.22;;;24.08;56.53
27613;BME280;15036;48.094;-1.690;2023-07-31T06:01:16;100808.16;;;24.05;56.39
27613;BME280;15036;48.094;-1.690;2023-07-31T06:03:42;100807.84;;;24.12;56.08
27613;BME280;15036;48.094;-1.690;2023-07-31T06:06:07;100804.34;;;24.40;55.54
27613;BME280;15036;48.094;-1.690;2023-07-31T06:08:33;100805.38;;;23.95;56.55
27613;BME280;15036;48.094;-1.690;2023-07-31T06:10:58;100799.44;;;24.22;55.67
27613;BME280;15036;48.094;-1.690;2023-07-31T06:13:23;100806.84;;;24.41;55.30
27613;BME280;15036;48.094;-1.690;2023-07-31T06:15:49;100793.00;;;24.21;55.95
27613;BME280;15036;48.094;-1.690;2023-07-31T06:18:14;100782.25;;;24.04;56.37
27613;BME280;15036;48.094;-1.690;2023-07-31T06:20:39;100787.59;;;24.40;55.76
27613;BME280;15036;48.094;-1.690;2023-07-31T06:23:05;100786.25;;;24.76;54.74
27613;BME280;15036;48.094;-1.690;2023-07-31T06:25:31;100784.69;;;24.11;56.26
27613;BME280;15036;48.094;-1.690;2023-07-31T06:27:56;100789.59;;;24.34;55.81
27613;BME280;15036;48.094;-1.690;2023-07-31T06:30:22;100785.81;;;24.54;55.05
27613;BME280;15036;48.094;-1.690;2023-07-31T06:32:47;100785.09;;;24.77;54.60
27613;BME280;15036;48.094;-1.690;2023-07-31T06:35:12;100791.91;;;24.22;55.59
27613;BME280;15036;48.094;-1.690;2023-07-31T06:37:38;100793.56;;;24.62;54.92
27613;BME280;15036;48.094;-1.690;2023-07-31T06:40:06;100787.94;;;24.67;54.95
27613;BME280;15036;48.094;-1.690;2023-07-31T06:42:33;100793.94;;;24.89;54.23
27613;BME280;15036;48.094;-1.690;2023-07-31T06:44:58;100793.88;;;25.51;52.69
27613;BME280;15036;48.094;-1.690;2023-07-31T06:47:23;100795.38;;;25.15;53.59
27613;BME280;15036;48.094;-1.690;2023-07-31T06:49:48;100797.97;;;24.78;54.62
27613;BME280;15036;48.094;-1.690;2023-07-31T06:52:14;100793.34;;;25.21;53.82
27613;BME280;15036;48.094;-1.690;2023-07-31T06:54:39;100787.34;;;25.32;53.21
27613;BME280;15036;48.094;-1.690;2023-07-31T06:57:05;100786.25;;;24.76;54.54
27613;BME280;15036;48.094;-1.690;2023-07-31T06:59:30;100778.28;;;24.88;54.14
27613;BME280;15036;48.094;-1.690;2023-07-31T07:01:55;100778.28;;;24.88;54.10
27613;BME280;15036;48.094;-1.690;2023-07-31T07:04:21;100779.72;;;25.14;53.46
27613;BME280;15036;48.094;-1.690;2023-07-31T07:06:46;100779.91;;;24.94;54.01
27613;BME280;15036;48.094;-1.690;2023-07-31T07:09:12;100787.97;;;25.01;53.69
27613;BME280;15036;48.094;-1.690;2023-07-31T07:11:37;100784.38;;;24.95;53.69
27613;BME280;15036;48.094;-1.690;2023-07-31T07:14:03;100789.81;;;25.10;53.39
27613;BME280;15036;48.094;-1.690;2023-07-31T07:16:28;100781.34;;;24.91;53.71
27613;BME280;15036;48.094;-1.690;2023-07-31T07:18:54;100782.97;;;24.64;54.52
27613;BME280;15036;48.094;-1.690;2023-07-31T07:21:19;100777.50;;;24.82;54.09
27613;BME280;15036;48.094;-1.690;2023-07-31T07:23:44;100771.81;;;24.98;54.00
27613;BME280;15036;48.094;-1.690;2023-07-31T07:26:10;100771.78;;;25.26;52.98
27613;BME280;15036;48.094;-1.690;2023-07-31T07:28:35;100768.31;;;25.34;52.88
27613;BME280;15036;48.094;-1.690;2023-07-31T07:31:02;100768.88;;;25.36;52.62
27613;BME280;15036;48.094;-1.690;2023-07-31T07:33:27;100775.16;;;25.23;53.31
27613;BME280;15036;48.094;-1.690;2023-07-31T07:35:53;100766.56;;;24.86;54.60
27613;BME280;15036;48.094;-1.690;2023-07-31T07:38:19;100778.50;;;24.19;56.52
27613;BME280;15036;48.094;-1.690;2023-07-31T07:40:44;100769.88;;;24.54;55.67
27613;BME280;15036;48.094;-1.690;2023-07-31T07:43:12;100764.38;;;24.05;57.05
27613;BME280;15036;48.094;-1.690;2023-07-31T07:45:37;100762.81;;;24.67;55.67
27613;BME280;15036;48.094;-1.690;2023-07-31T07:48:03;100755.28;;;25.01;54.63
27613;BME280;15036;48.094;-1.690;2023-07-31T07:50:28;100759.81;;;24.92;55.14
27613;BME280;15036;48.094;-1.690;2023-07-31T07:52:53;100764.91;;;24.85;55.27
27613;BME280;15036;48.094;-1.690;2023-07-31T07:55:19;100770.72;;;24.55;55.88
27613;BME280;15036;48.094;-1.690;2023-07-31T07:57:44;100767.00;;;24.69;55.76
27613;BME280;15036;48.094;-1.690;2023-07-31T08:00:11;100752.81;;;24.94;55.17
27613;BME280;15036;48.094;-1.690;2023-07-31T08:02:36;100750.13;;;24.84;55.32
27613;BME280;15036;48.094;-1.690;2023-07-31T08:05:02;100755.81;;;24.69;56.07
27613;BME280;15036;48.094;-1.690;2023-07-31T08:07:27;100751.09;;;24.65;55.78
27613;BME280;15036;48.094;-1.690;2023-07-31T08:09:52;100750.56;;;24.97;55.22
27613;BME280;15036;48.094;-1.690;2023-07-31T08:12:18;100742.28;;;25.39;54.18
27613;BME280;15036;48.094;-1.690;2023-07-31T08:14:43;100745.47;;;24.75;56.17
27613;BME280;15036;48.094;-1.690;2023-07-31T08:17:08;100737.06;;;24.41;57.18
27613;BME280;15036;48.094;-1.690;2023-07-31T08:19:34;100741.56;;;24.76;56.44
27613;BME280;15036;48.094;-1.690;2023-07-31T08:21:59;100737.31;;;24.78;56.24
27613;BME280;15036;48.094;-1.690;2023-07-31T08:24:24;100736.50;;;24.78;56.82
27613;BME280;15036;48.094;-1.690;2023-07-31T08:26:50;100740.38;;;25.11;56.15
27613;BME280;15036;48.094;-1.690;2023-07-31T08:29:15;100736.69;;;25.15;56.06
27613;BME280;15036;48.094;-1.690;2023-07-31T08:31:41;100720.81;;;24.82;57.28
27613;BME280;15036;48.094;-1.690;2023-07-31T08:34:06;100723.66;;;24.77;57.96
27613;BME280;15036;48.094;-1.690;2023-07-31T08:36:31;100724.50;;;24.44;58.79
27613;BME280;15036;48.094;-1.690;2023-07-31T08:38:57;100730.09;;;24.77;58.07
27613;BME280;15036;48.094;-1.690;2023-07-31T08:41:22;100736.94;;;24.90;58.08
27613;BME280;15036;48.094;-1.690;2023-07-31T08:43:49;100732.81;;;24.49;59.80
27613;BME280;15036;48.094;-1.690;2023-07-31T08:46:15;100732.03;;;24.43;60.28
27613;BME280;15036;48.094;-1.690;2023-07-31T08:48:42;100720.63;;;24.68;59.26
27613;BME280;15036;48.094;-1.690;2023-07-31T08:51:08;100728.66;;;24.80;59.10
27613;BME280;15036;48.094;-1.690;2023-07-31T08:53:33;100710.13;;;24.89;58.93
27613;BME280;15036;48.094;-1.690;2023-07-31T08:55:59;100717.38;;;24.90;59.12
27613;BME280;15036;48.094;-1.690;2023-07-31T08:58:27;100719.06;;;24.91;59.04
27613;BME280;15036;48.094;-1.690;2023-07-31T09:00:57;100715.34;;;24.67;59.72
27613;BME280;15036;48.094;-1.690;2023-07-31T09:03:24;100714.81;;;25.46;57.49
27613;BME280;15036;48.094;-1.690;2023-07-31T09:05:50;100717.53;;;24.75;59.75
27613;BME280;15036;48.094;-1.690;2023-07-31T09:08:19;100723.56;;;24.87;59.85
27613;BME280;15036;48.094;-1.690;2023-07-31T09:10:46;100721.78;;;24.62;60.59
27613;BME280;15036;48.094;-1.690;2023-07-31T09:13:12;100718.47;;;24.60;60.95
27613;BME280;15036;48.094;-1.690;2023-07-31T09:15:38;100720.16;;;24.61;61.23
27613;BME280;15036;48.094;-1.690;2023-07-31T09:18:05;100723.66;;;24.77;60.89
27613;BME280;15036;48.094;-1.690;2023-07-31T09:20:31;100733.56;;;24.93;60.44
27613;BME280;15036;48.094;-1.690;2023-07-31T09:23:09;100727.38;;;24.96;60.62
27613;BME280;15036;48.094;-1.690;2023-07-31T09:25:35;100724.03;;;24.65;61.02
27613;BME280;15036;48.094;-1.690;2023-07-31T09:28:03;100718.47;;;25.18;59.72
27613;BME280;15036;48.094;-1.690;2023-07-31T09:30:28;100717.00;;;24.73;60.73
27613;BME280;15036;48.094;-1.690;2023-07-31T09:33:02;100706.50;;;25.17;59.55
27613;BME280;15036;48.094;-1.690;2023-07-31T09:35:33;100702.38;;;25.10;59.57
27613;BME280;15036;48.094;-1.690;2023-07-31T09:38:10;100693.22;;;25.75;57.72
27613;BME280;15036;48.094;-1.690;2023-07-31T09:40:38;100700.06;;;25.64;57.57
27613;BME280;15036;48.094;-1.690;2023-07-31T09:43:05;100702.75;;;25.50;57.62
27613;BME280;15036;48.094;-1.690;2023-07-31T09:45:35;100697.91;;;26.17;55.70
27613;BME280;15036;48.094;-1.690;2023-07-31T09:48:02;100696.81;;;25.75;56.65
27613;BME280;15036;48.094;-1.690;2023-07-31T09:50:27;100696.31;;;26.11;55.93
27613;BME280;15036;48.094;-1.690;2023-07-31T09:52:53;100686.84;;;25.88;55.72
27613;BME280;15036;48.094;-1.690;2023-07-31T09:55:19;100704.13;;;25.53;56.80
27613;BME280;15036;48.094;-1.690;2023-07-31T09:57:48;100702.28;;;25.43;57.01
27613;BME280;15036;48.094;-1.690;2023-07-31T10:00:18;100695.88;;;25.61;56.71
27613;BME280;15036;48.094;-1.690;2023-07-31T10:02:47;100691.53;;;25.74;56.09
27613;BME280;15036;48.094;-1.690;2023-07-31T10:05:14;100688.47;;;25.52;56.73
27613;BME280;15036;48.094;-1.690;2023-07-31T10:07:43;100687.63;;;25.51;56.87
27613;BME280;15036;48.094;-1.690;2023-07-31T10:10:11;100672.03;;;25.88;56.63
27613;BME280;15036;48.094;-1.690;2023-07-31T10:12:37;100680.44;;;25.45;58.36
27613;BME280;15036;48.094;-1.690;2023-07-31T10:15:03;100681.63;;;25.39;58.48
27613;BME280;15036;48.094;-1.690;2023-07-31T10:17:30;100679.78;;;25.53;58.94
27613;BME280;15036;48.094;-1.690;2023-07-31T10:19:58;100674.00;;;25.68;58.27
27613;BME280;15036;48.094;-1.690;2023-07-31T10:22:25;100679.06;;;25.66;58.41
27613;BME280;15036;48.094;-1.690;2023-07-31T10:24:52;100676.41;;;25.09;59.51
27613;BME280;15036;48.094;-1.690;2023-07-31T10:27:19;100682.84;;;25.10;60.13
27613;BME280;15036;48.094;-1.690;2023-07-31T10:29:47;100684.47;;;25.11;60.45
27613;BME280;15036;48.094;-1.690;2023-07-31T10:32:14;100682.84;;;25.10;60.86
27613;BME280;15036;48.094;-1.690;2023-07-31T10:34:41;100676.50;;;24.99;61.20
27613;BME280;15036;48.094;-1.690;2023-07-31T10:37:27;100661.56;;;24.56;62.74
27613;BME280;15036;48.094;-1.690;2023-07-31T10:42:54;100646.19;;;24.87;61.55
27613;BME280;15036;48.094;-1.690;2023-07-31T10:45:42;100656.19;;;24.93;61.34
27613;BME280;15036;48.094;-1.690;2023-07-31T10:48:15;100652.91;;;24.86;61.24
27613;BME280;15036;48.094;-1.690;2023-07-31T10:50:48;100655.41;;;25.35;60.27
27613;BME280;15036;48.094;-1.690;2023-07-31T10:53:31;100649.22;;;25.81;59.17
27613;BME280;15036;48.094;-1.690;2023-07-31T10:55:58;100659.84;;;25.60;59.58
27613;BME280;15036;48.094;-1.690;2023-07-31T10:58:24;100650.63;;;25.59;59.14
27613;BME280;15036;48.094;-1.690;2023-07-31T11:00:55;100654.47;;;25.63;59.28
27613;BME280;15036;48.094;-1.690;2023-07-31T11:03:25;100644.22;;;25.77;58.38
27613;BME280;15036;48.094;-1.690;2023-07-31T11:06:03;100652.97;;;25.90;57.68
27613;BME280;15036;48.094;-1.690;2023-07-31T11:08:33;100631.97;;;25.92;58.27
27613;BME280;15036;48.094;-1.690;2023-07-31T11:13:27;100626.50;;;26.51;57.09
27613;BME280;15036;48.094;-1.690;2023-07-31T11:15:53;100625.75;;;26.32;57.12
27613;BME280;15036;48.094;-1.690;2023-07-31T11:18:19;100635.81;;;25.96;58.22
27613;BME280;15036;48.094;-1.690;2023-07-31T11:20:44;100626.84;;;25.81;58.19
27613;BME280;15036;48.094;-1.690;2023-07-31T11:23:11;100619.56;;;25.79;58.15
27613;BME280;15036;48.094;-1.690;2023-07-31T11:25:38;100617.22;;;25.87;58.06
27613;BME280;15036;48.094;-1.690;2023-07-31T11:28:09;100617.28;;;25.82;58.31
27613;BME280;15036;48.094;-1.690;2023-07-31T11:30:35;100610.13;;;25.75;58.30
27613;BME280;15036;48.094;-1.690;2023-07-31T11:33:02;100623.19;;;25.99;57.51
27613;BME280;15036;48.094;-1.690;2023-07-31T11:35:29;100618.44;;;25.81;57.33
27613;BME280;15036;48.094;-1.690;2023-07-31T11:37:55;100604.28;;;25.91;57.60
27613;BME280;15036;48.094;-1.690;2023-07-31T11:40:20;100624.88;;;25.62;58.28
27613;BME280;15036;48.094;-1.690;2023-07-31T11:42:46;100621.00;;;25.58;58.27
27613;BME280;15036;48.094;-1.690;2023-07-31T11:45:11;100633.84;;;25.41;59.54
27613;BME280;15036;48.094;-1.690;2023-07-31T11:47:37;100637.63;;;25.03;60.60
27613;BME280;15036;48.094;-1.690;2023-07-31T11:50:06;100626.66;;;25.30;60.93
27613;BME280;15036;48.094;-1.690;2023-07-31T11:52:42;100620.34;;;25.66;59.69
27613;BME280;15036;48.094;-1.690;2023-07-31T11:55:09;100624.41;;;25.93;58.90
27613;BME280;15036;48.094;-1.690;2023-07-31T11:57:37;100624.09;;;25.75;59.08
27613;BME280;15036;48.094;-1.690;2023-07-31T12:00:05;100600.66;;;25.90;58.77
27613;BME280;15036;48.094;-1.690;2023-07-31T12:02:31;100597.78;;;25.95;58.38
27613;BME280;15036;48.094;-1.690;2023-07-31T12:04:57;100582.72;;;26.42;56.73
27613;BME280;15036;48.094;-1.690;2023-07-31T12:07:23;100591.34;;;26.45;56.22
27613;BME280;15036;48.094;-1.690;2023-07-31T12:09:53;100581.63;;;27.24;54.46
27613;BME280;15036;48.094;-1.690;2023-07-31T12:12:20;100574.31;;;26.88;53.87
27613;BME280;15036;48.094;-1.690;2023-07-31T12:14:46;100560.97;;;27.20;53.15
27613;BME280;15036;48.094;-1.690;2023-07-31T12:17:11;100564.13;;;26.92;53.32
27613;BME280;15036;48.094;-1.690;2023-07-31T12:19:37;100559.31;;;27.69;51.74
27613;BME280;15036;48.094;-1.690;2023-07-31T12:22:14;100545.00;;;27.21;52.43
27613;BME280;15036;48.094;-1.690;2023-07-31T12:24:41;100539.63;;;26.97;53.27
27613;BME280;15036;48.094;-1.690;2023-07-31T12:27:14;100544.38;;;26.70;53.46
27613;BME280;15036;48.094;-1.690;2023-07-31T12:29:42;100548.50;;;27.26;52.25
27613;BME280;15036;48.094;-1.690;2023-07-31T12:32:22;100541.66;;;27.19;52.23
27613;BME280;15036;48.094;-1.690;2023-07-31T12:34:49;100527.81;;;27.94;50.48
27613;BME280;15036;48.094;-1.690;2023-07-31T12:37:14;100512.22;;;26.53;53.68
27613;BME280;15036;48.094;-1.690;2023-07-31T12:39:40;100517.34;;;26.19;54.85
27613;BME280;15036;48.094;-1.690;2023-07-31T12:42:05;100530.03;;;26.44;54.98
27613;BME280;15036;48.094;-1.690;2023-07-31T12:44:31;100498.47;;;26.25;55.24
27613;BME280;15036;48.094;-1.690;2023-07-31T12:46:56;100496.91;;;25.73;57.11
27613;BME280;15036;48.094;-1.690;2023-07-31T12:49:22;100493.22;;;25.59;57.39